createdAt,value
2022-10-31T06:03:36.634Z,236
2022-10-31T06:04:26.008Z,260
2022-10-31T06:05:25.253Z,280
2022-10-31T06:06:24.444Z,296
2022-10-31T06:07:24.768Z,320
2022-10-31T06:08:24.469Z,344
2022-10-31T06:09:24.241Z,364
2022-10-31T06:10:24.473Z,388
2022-10-31T06:11:24.144Z,416
2022-10-31T06:12:24.149Z,436
2022-10-31T06:13:25.372Z,460
2022-10-31T06:14:24.151Z,488
2022-10-31T06:15:30.717Z,516
2022-10-31T06:16:25.031Z,536
2022-10-31T06:17:25.018Z,564
2022-10-31T06:18:24.310Z,588
2022-10-31T06:19:24.407Z,608
2022-10-31T06:20:25.581Z,636
2022-10-31T06:21:26.594Z,660
2022-10-31T06:22:24.771Z,680
2022-10-31T06:23:24.181Z,704
2022-10-31T06:24:24.375Z,732
2022-10-31T06:25:25.435Z,760
2022-10-31T06:26:24.586Z,796
2022-10-31T06:27:24.283Z,840
2022-10-31T06:28:24.327Z,876
2022-10-31T06:29:24.269Z,904
2022-10-31T06:30:24.309Z,940
2022-10-31T06:31:24.294Z,968
2022-10-31T06:32:24.895Z,1000
2022-10-31T06:33:24.301Z,1032
2022-10-31T06:34:24.320Z,1064
2022-10-31T06:35:24.767Z,1096
2022-10-31T06:37:24.374Z,1140
2022-10-31T06:38:24.671Z,1164
2022-10-31T06:39:25.094Z,1184
2022-10-31T06:40:24.686Z,1208
2022-10-31T06:41:24.327Z,1228
2022-10-31T06:42:25.742Z,1260
2022-10-31T06:43:24.367Z,1288
2022-10-31T06:44:24.413Z,1308
2022-10-31T06:45:24.713Z,1336
2022-10-31T06:46:24.872Z,1360
2022-10-31T06:47:24.616Z,1384
2022-10-31T06:48:29.093Z,1400
2022-10-31T06:49:24.842Z,1416
2022-10-31T06:50:25.110Z,1436
2022-10-31T06:51:24.865Z,1456
2022-10-31T06:52:25.553Z,1480
2022-10-31T06:53:24.732Z,1488
2022-10-31T06:54:24.897Z,1536
2022-10-31T06:55:25.319Z,1592
2022-10-31T06:56:25.953Z,1632
2022-10-31T06:57:24.790Z,1680
2022-10-31T06:58:24.684Z,1724
2022-10-31T06:59:24.421Z,1768
2022-10-31T07:00:24.455Z,1808
2022-10-31T07:01:26.202Z,1848
2022-10-31T07:02:25.207Z,1884
2022-10-31T07:03:24.554Z,1908
2022-10-31T07:04:24.824Z,1940
2022-10-31T07:05:24.689Z,1968
2022-10-31T07:06:24.592Z,1992
2022-10-31T07:07:24.867Z,2020
2022-10-31T07:08:25.557Z,2032
2022-10-31T07:09:24.631Z,2028
2022-10-31T07:10:24.890Z,1964
2022-10-31T07:11:25.199Z,1968
2022-10-31T07:12:27.214Z,2032
2022-10-31T07:13:24.639Z,2120
2022-10-31T07:14:24.840Z,2148
2022-10-31T07:15:25.527Z,2160
2022-10-31T07:16:25.643Z,2148
2022-10-31T07:17:29.973Z,2204
2022-10-31T07:18:24.858Z,2216
2022-10-31T07:19:25.201Z,2248
2022-10-31T07:20:24.915Z,2272
2022-10-31T07:21:24.937Z,2296
2022-10-31T07:22:24.608Z,2336
2022-10-31T07:23:25.236Z,2380
2022-10-31T07:24:25.491Z,2420
2022-10-31T07:25:25.070Z,2456
2022-10-31T07:26:25.365Z,2492
2022-10-31T07:27:24.778Z,2532
2022-10-31T07:28:24.956Z,2560
2022-10-31T07:29:24.958Z,2580
2022-10-31T07:30:24.736Z,2616
2022-10-31T07:31:25.104Z,2652
2022-10-31T07:32:24.799Z,2676
2022-10-31T07:33:25.682Z,2680
2022-10-31T07:34:25.016Z,2692
2022-10-31T07:35:24.940Z,2672
2022-10-31T07:36:26.094Z,2704
2022-10-31T07:37:25.622Z,2692
2022-10-31T07:38:25.434Z,2732
2022-10-31T07:39:25.472Z,2772
2022-10-31T07:40:25.950Z,2872
2022-10-31T07:41:24.978Z,2952
2022-10-31T07:42:26.182Z,2972
2022-10-31T07:43:25.999Z,2992
2022-10-31T07:44:25.859Z,3012
2022-10-31T07:45:25.269Z,3036
2022-10-31T07:46:25.268Z,3048
2022-10-31T07:47:25.243Z,3064
2022-10-31T07:48:25.032Z,3068
2022-10-31T07:49:25.337Z,3064
2022-10-31T07:50:25.079Z,3076
2022-10-31T07:51:25.727Z,3092
2022-10-31T07:52:25.146Z,3108
2022-10-31T07:53:25.629Z,3140
2022-10-31T07:54:25.243Z,3176
2022-10-31T07:55:25.477Z,3180
2022-10-31T07:56:26.131Z,3192
2022-10-31T07:57:35.574Z,3216
2022-10-31T07:58:25.201Z,3236
2022-10-31T07:59:25.185Z,3260
2022-10-31T08:00:25.299Z,3272
2022-10-31T08:01:25.403Z,3300
2022-10-31T08:02:25.237Z,3324
2022-10-31T08:03:25.234Z,3348
2022-10-31T08:04:25.247Z,3376
2022-10-31T08:05:25.502Z,3388
2022-10-31T08:06:25.497Z,3400
2022-10-31T08:07:25.355Z,3416
2022-10-31T08:08:25.606Z,3440
2022-10-31T08:09:25.864Z,3464
2022-10-31T08:10:26.187Z,3492
2022-10-31T08:11:25.340Z,3528
2022-10-31T08:12:26.286Z,3548
2022-10-31T08:13:25.569Z,3604
2022-10-31T08:14:26.184Z,3636
2022-10-31T08:15:25.432Z,3644
2022-10-31T08:16:25.887Z,3688
2022-10-31T08:17:25.350Z,3744
2022-10-31T08:18:25.609Z,3716
2022-10-31T08:19:25.378Z,3720
2022-10-31T08:20:25.434Z,3772
2022-10-31T08:21:26.052Z,3840
2022-10-31T08:22:25.818Z,3876
2022-10-31T08:23:25.449Z,3904
2022-10-31T08:24:25.498Z,3916
2022-10-31T08:25:25.909Z,3940
2022-10-31T08:26:25.476Z,3932
2022-10-31T08:27:25.941Z,3932
2022-10-31T08:28:26.400Z,3872
2022-10-31T08:29:26.675Z,3956
2022-10-31T08:30:25.828Z,3984
2022-10-31T08:31:29.253Z,4004
2022-10-31T08:32:25.591Z,4012
2022-10-31T08:33:25.897Z,4008
2022-10-31T08:34:25.888Z,4008
2022-10-31T08:35:26.566Z,4028
2022-10-31T08:36:26.494Z,4052
2022-10-31T08:37:27.656Z,4020
2022-10-31T08:38:26.136Z,4008
2022-10-31T08:39:25.662Z,4000
2022-10-31T08:40:26.072Z,4000
2022-10-31T08:41:25.677Z,3984
2022-10-31T08:42:25.973Z,4020
2022-10-31T08:43:25.692Z,4000
2022-10-31T08:44:26.832Z,4020
2022-10-31T08:45:26.370Z,4180
2022-10-31T08:46:25.653Z,4256
2022-10-31T08:47:26.489Z,4268
2022-10-31T08:48:26.568Z,4240
2022-10-31T08:49:25.932Z,4276
2022-10-31T08:50:25.892Z,4316
2022-10-31T08:51:25.898Z,4356
2022-10-31T08:53:06.771Z,4336
2022-10-31T08:53:25.886Z,4388
2022-10-31T08:54:26.931Z,4336
2022-10-31T08:55:25.894Z,4128
2022-10-31T08:56:26.216Z,4068
2022-10-31T08:57:26.126Z,4076
2022-10-31T08:58:26.260Z,4104
2022-10-31T08:59:26.245Z,4104
2022-10-31T09:00:26.869Z,4144
2022-10-31T09:01:27.408Z,4144
2022-10-31T09:02:26.919Z,4156
2022-10-31T09:03:27.035Z,4424
2022-10-31T09:04:26.626Z,4612
2022-10-31T09:05:26.716Z,4696
2022-10-31T09:06:26.950Z,4620
2022-10-31T09:07:27.991Z,4580
2022-10-31T09:08:26.133Z,4572
2022-10-31T09:09:26.111Z,4816
2022-10-31T09:10:26.304Z,5052
2022-10-31T09:11:26.512Z,5204
2022-10-31T09:12:26.162Z,5280
2022-10-31T09:13:30.099Z,5216
2022-10-31T09:14:26.193Z,5372
2022-10-31T09:15:26.396Z,5184
2022-10-31T09:16:27.213Z,5252
2022-10-31T09:17:26.236Z,5248
2022-10-31T09:18:26.442Z,5184
2022-10-31T09:19:26.311Z,5092
2022-10-31T09:20:26.260Z,4956
2022-10-31T09:21:26.619Z,4888
2022-10-31T09:22:26.315Z,4880
2022-10-31T09:23:26.306Z,4836
2022-10-31T09:24:26.597Z,4812
2022-10-31T09:25:26.785Z,4760
2022-10-31T09:26:26.374Z,4784
2022-10-31T09:27:26.437Z,4820
2022-10-31T09:28:26.281Z,4812
2022-10-31T09:29:26.419Z,4788
2022-10-31T09:30:27.020Z,4716
2022-10-31T09:31:26.465Z,4564
2022-10-31T09:32:27.480Z,4640
2022-10-31T09:33:27.057Z,4692
2022-10-31T09:34:27.187Z,4680
2022-10-31T09:35:31.770Z,4588
2022-10-31T09:36:26.930Z,4560
2022-10-31T09:37:27.127Z,4456
2022-10-31T09:38:26.587Z,4304
2022-10-31T09:39:26.591Z,4244
2022-10-31T09:40:27.055Z,4272
2022-10-31T09:41:26.625Z,4328
2022-10-31T09:42:26.532Z,4480
2022-10-31T09:43:27.154Z,4496
2022-10-31T09:44:27.224Z,4544
2022-10-31T09:45:27.625Z,4588
2022-10-31T09:46:27.438Z,4588
2022-10-31T09:47:26.978Z,4648
2022-10-31T09:48:27.605Z,4640
2022-10-31T09:49:27.380Z,4572
2022-10-31T09:50:27.155Z,4572
2022-10-31T09:51:27.054Z,4584
2022-10-31T09:52:27.652Z,4680
2022-10-31T09:53:27.349Z,4804
2022-10-31T09:54:27.105Z,4824
2022-10-31T09:55:26.873Z,4900
2022-10-31T09:56:27.487Z,4828
2022-10-31T09:57:30.829Z,4804
2022-10-31T09:58:27.055Z,4832
2022-10-31T09:59:27.255Z,4892
2022-10-31T10:00:27.105Z,4836
2022-10-31T10:01:27.985Z,4632
2022-10-31T10:02:27.360Z,4664
2022-10-31T10:03:27.012Z,4772
2022-10-31T10:04:29.536Z,4876
2022-10-31T10:05:27.713Z,4892
2022-10-31T10:06:27.642Z,4972
2022-10-31T10:07:27.076Z,5084
2022-10-31T10:08:28.458Z,5156
2022-10-31T10:09:28.541Z,5188
2022-10-31T10:10:27.329Z,5236
2022-10-31T10:11:27.375Z,5160
2022-10-31T10:12:27.950Z,5200
2022-10-31T10:13:27.459Z,5156
2022-10-31T10:14:27.635Z,5180
2022-10-31T10:15:27.228Z,5164
2022-10-31T10:16:27.780Z,5112
2022-10-31T10:17:27.501Z,5168
2022-10-31T10:18:27.609Z,5184
2022-10-31T10:19:27.913Z,5172
2022-10-31T10:20:28.632Z,5076
2022-10-31T10:21:28.211Z,5028
2022-10-31T10:22:27.748Z,5052
2022-10-31T10:23:27.778Z,5104
2022-10-31T10:24:27.286Z,5100
2022-10-31T10:25:27.379Z,5112
2022-10-31T10:26:27.811Z,5120
2022-10-31T10:27:30.047Z,5156
2022-10-31T10:28:27.841Z,5180
2022-10-31T10:29:28.584Z,5084
2022-10-31T10:30:27.410Z,4740
2022-10-31T10:31:27.769Z,4600
2022-10-31T10:32:28.705Z,4812
2022-10-31T10:33:28.378Z,4968
2022-10-31T10:34:29.036Z,4952
2022-10-31T10:35:28.228Z,4732
2022-10-31T10:36:29.140Z,4848
2022-10-31T10:37:28.315Z,4864
2022-10-31T10:38:28.210Z,4812
2022-10-31T10:39:27.683Z,4676
2022-10-31T10:40:28.037Z,4544
2022-10-31T10:41:34.769Z,4532
2022-10-31T10:42:28.292Z,4644
2022-10-31T10:43:27.999Z,4784
2022-10-31T10:44:28.125Z,4636
2022-10-31T10:45:28.333Z,4736
2022-10-31T10:46:28.917Z,4560
2022-10-31T10:47:28.215Z,4656
2022-10-31T10:48:28.545Z,4788
2022-10-31T10:49:27.985Z,4928
2022-10-31T10:50:29.051Z,4704
2022-10-31T10:52:44.692Z,4804
2022-10-31T10:52:58.684Z,4812
2022-10-31T10:53:59.549Z,4996
2022-10-31T10:54:58.427Z,5192
2022-10-31T10:55:58.934Z,5464
2022-10-31T10:56:58.595Z,5496
2022-10-31T10:57:59.306Z,5496
2022-10-31T10:58:58.586Z,5472
2022-10-31T10:59:59.575Z,5456
2022-10-31T11:00:59.050Z,5448
2022-10-31T11:01:59.533Z,5472
2022-10-31T11:02:58.884Z,5448
2022-10-31T11:03:58.505Z,5516
2022-10-31T11:04:58.820Z,5604
2022-10-31T11:05:59.932Z,5600
2022-10-31T11:06:58.893Z,5740
2022-10-31T11:07:59.187Z,5776
2022-10-31T11:09:00.596Z,5796
2022-10-31T11:09:58.864Z,5828
2022-10-31T11:10:59.241Z,5800
2022-10-31T11:11:58.854Z,5756
2022-10-31T11:13:00.454Z,5700
2022-10-31T11:13:59.431Z,5668
2022-10-31T11:14:59.184Z,5580
2022-10-31T17:12:49.431Z,0
2022-10-31T17:13:37.238Z,0
2022-10-31T17:14:36.574Z,0
2022-10-31T17:15:36.871Z,0
2022-10-31T17:16:36.610Z,0
2022-10-31T17:17:36.577Z,0
2022-10-31T17:18:36.641Z,0
2022-10-31T17:19:37.541Z,0
2022-10-31T17:20:37.236Z,0
2022-10-31T17:21:36.923Z,0
2022-10-31T17:22:37.141Z,0
2022-10-31T17:23:37.224Z,0
2022-10-31T17:24:36.981Z,0
2022-10-31T17:25:36.897Z,0
2022-10-31T17:26:37.822Z,0
2022-10-31T17:27:36.764Z,0
2022-10-31T17:28:37.074Z,0
2022-10-31T17:29:37.441Z,0
2022-10-31T17:30:36.799Z,0
2022-10-31T17:31:37.076Z,0
2022-10-31T17:32:37.698Z,0
2022-10-31T17:33:37.639Z,0
2022-10-31T17:34:37.458Z,0
2022-10-31T17:35:37.941Z,0
2022-10-31T17:36:37.137Z,0
2022-10-31T17:37:36.922Z,0
2022-10-31T17:38:36.872Z,0
2022-10-31T17:39:38.177Z,0
2022-10-31T17:40:37.654Z,0
2022-10-31T17:41:37.838Z,0
2022-10-31T17:42:37.277Z,0
2022-10-31T17:43:38.184Z,0
2022-10-31T17:44:38.162Z,0
2022-10-31T17:45:38.245Z,0
2022-10-31T17:46:37.558Z,0
2022-10-31T17:47:37.356Z,0
2022-10-31T17:48:37.462Z,0
2022-10-31T17:49:37.291Z,0
2022-10-31T17:50:37.093Z,0
2022-10-31T17:51:37.248Z,0
2022-10-31T17:52:37.129Z,0
2022-10-31T17:53:37.873Z,0
2022-10-31T17:54:37.054Z,0
2022-10-31T17:55:43.967Z,0
2022-10-31T17:56:38.514Z,0
2022-10-31T17:57:37.570Z,0
2022-10-31T17:58:37.510Z,0
2022-10-31T17:59:37.525Z,0
2022-10-31T18:00:37.845Z,0
2022-10-31T18:01:38.776Z,0
2022-10-31T18:02:38.181Z,0
2022-10-31T18:03:37.563Z,0
2022-10-31T18:04:37.307Z,0
2022-10-31T18:05:37.229Z,0
2022-10-31T18:06:38.231Z,0
2022-10-31T18:07:37.978Z,0
2022-10-31T18:08:37.945Z,0
2022-10-31T18:09:37.624Z,0
2022-10-31T18:10:37.707Z,0
2022-10-31T18:11:37.439Z,0
2022-10-31T18:12:37.385Z,0
2022-10-31T18:13:37.393Z,0
2022-10-31T18:14:39.199Z,0
2022-10-31T18:15:37.915Z,0
2022-10-31T18:16:39.238Z,0
2022-10-31T18:17:44.404Z,0
2022-10-31T18:18:38.220Z,0
2022-10-31T18:19:37.515Z,0
2022-10-31T18:20:38.056Z,0
2022-10-31T18:21:37.395Z,0
2022-10-31T18:22:37.516Z,0
2022-10-31T18:23:37.587Z,0
2022-10-31T18:24:38.590Z,0
2022-10-31T18:25:37.930Z,0
2022-10-31T18:26:37.891Z,0
2022-10-31T18:27:37.593Z,0
2022-10-31T18:28:38.008Z,0
2022-10-31T18:29:38.219Z,0
2022-10-31T18:30:37.677Z,0
2022-10-31T18:31:38.274Z,0
2022-10-31T18:32:37.904Z,0
2022-10-31T18:33:38.336Z,0
2022-10-31T18:34:38.236Z,0
2022-10-31T18:35:37.939Z,0
2022-10-31T18:36:37.691Z,0
2022-10-31T18:37:37.974Z,0
2022-10-31T18:38:38.060Z,0
2022-10-31T18:39:37.992Z,0
2022-10-31T18:40:38.351Z,0
2022-10-31T18:41:37.999Z,0
2022-10-31T18:42:38.072Z,0
2022-10-31T18:43:37.797Z,0
2022-10-31T18:44:37.847Z,0
2022-10-31T18:46:00.372Z,0
2022-10-31T18:46:37.825Z,0
2022-10-31T18:47:38.099Z,0
2022-10-31T18:48:38.053Z,0
2022-10-31T18:49:38.489Z,0
2022-10-31T18:50:38.788Z,0
2022-10-31T18:51:38.168Z,0
2022-10-31T18:52:38.713Z,0
2022-10-31T18:53:37.830Z,0
2022-10-31T18:54:38.235Z,0
2022-10-31T18:55:37.914Z,0
2022-10-31T18:56:37.978Z,0
2022-10-31T18:57:38.207Z,0
2022-10-31T18:58:38.861Z,0
2022-10-31T18:59:38.585Z,0
2022-10-31T19:00:38.016Z,0
2022-10-31T19:01:38.779Z,0
2022-10-31T19:02:38.478Z,0
2022-10-31T19:03:38.487Z,0
2022-10-31T19:04:38.477Z,0
2022-10-31T19:05:38.664Z,0
2022-10-31T19:06:39.147Z,0
2022-10-31T19:07:38.680Z,0
2022-10-31T19:08:38.122Z,0
2022-10-31T19:09:39.260Z,0
2022-10-31T19:10:38.524Z,0
2022-10-31T19:11:38.608Z,0
2022-10-31T19:12:38.294Z,0
2022-10-31T19:13:38.349Z,0
2022-10-31T19:14:39.022Z,0
2022-10-31T19:15:38.575Z,0
2022-10-31T19:16:38.265Z,0
2022-10-31T19:17:38.739Z,0
2022-10-31T19:18:39.078Z,0
2022-10-31T19:19:39.788Z,0
2022-10-31T19:20:38.470Z,0
2022-10-31T19:21:38.876Z,0
2022-10-31T19:22:39.384Z,0
2022-10-31T19:23:38.707Z,0
2022-10-31T19:24:38.323Z,0
2022-10-31T19:25:39.282Z,0
2022-10-31T19:26:38.712Z,0
2022-10-31T19:27:38.980Z,0
2022-10-31T19:28:38.617Z,0
2022-10-31T19:29:38.745Z,0
2022-10-31T19:30:38.422Z,0
2022-10-31T19:31:38.622Z,0
2022-10-31T19:32:38.673Z,0
2022-10-31T19:33:42.837Z,0
2022-10-31T19:34:38.675Z,0
2022-10-31T19:35:38.425Z,0
2022-10-31T19:36:39.164Z,0
2022-10-31T19:37:39.117Z,0
2022-10-31T19:38:38.819Z,0
2022-10-31T19:39:46.105Z,0
2022-10-31T19:40:40.493Z,0
2022-10-31T19:41:38.730Z,0
2022-10-31T19:42:38.721Z,0
2022-10-31T19:43:39.917Z,0
2022-10-31T19:44:38.593Z,0
2022-10-31T19:45:38.633Z,0
2022-10-31T19:47:00.237Z,0
2022-10-31T19:47:38.521Z,0
2022-10-31T19:48:38.846Z,0
2022-10-31T19:49:39.034Z,0
2022-10-31T19:50:38.634Z,0
2022-10-31T19:51:38.639Z,0
2022-10-31T19:52:38.988Z,0
2022-10-31T19:53:39.362Z,0
2022-10-31T19:54:39.019Z,0
2022-10-31T19:55:38.915Z,0
2022-10-31T19:56:39.322Z,0
2022-10-31T19:58:06.904Z,0
2022-10-31T19:58:38.759Z,0
2022-10-31T19:59:45.785Z,0
2022-10-31T20:00:39.265Z,0
2022-10-31T20:01:39.431Z,0
2022-10-31T20:02:38.862Z,0
2022-10-31T20:03:39.430Z,0
2022-10-31T20:04:39.388Z,0
2022-10-31T20:05:38.824Z,0
2022-10-31T20:06:39.271Z,0
2022-10-31T20:07:38.910Z,0
2022-10-31T20:08:47.241Z,0
2022-10-31T20:09:39.856Z,0
2022-10-31T20:10:39.359Z,0
2022-10-31T20:11:39.072Z,0
2022-10-31T20:12:39.129Z,0
2022-10-31T20:13:38.854Z,0
2022-10-31T20:14:38.952Z,0
2022-10-31T20:15:39.818Z,0
2022-10-31T20:16:38.891Z,0
2022-10-31T20:17:40.018Z,0
2022-10-31T20:18:39.259Z,0
2022-10-31T20:19:40.066Z,0
2022-10-31T20:20:41.677Z,0
2022-10-31T20:21:39.588Z,0
2022-10-31T20:22:38.965Z,0
2022-10-31T20:23:39.601Z,0
2022-10-31T20:24:39.973Z,0
2022-10-31T20:25:39.872Z,0
2022-10-31T20:26:39.067Z,0
2022-10-31T20:27:39.199Z,0
2022-10-31T20:28:46.230Z,0
2022-10-31T20:29:39.661Z,0
2022-10-31T20:30:39.707Z,0
2022-10-31T20:31:39.058Z,0
2022-10-31T20:32:39.647Z,0
2022-10-31T20:33:39.321Z,0
2022-10-31T20:34:39.662Z,0
2022-10-31T20:35:39.175Z,0
2022-10-31T20:36:40.003Z,0
2022-10-31T20:37:39.346Z,0
2022-10-31T20:38:39.333Z,0
2022-10-31T20:39:39.551Z,0
2022-10-31T20:40:40.577Z,0
2022-10-31T20:41:39.536Z,0
2022-10-31T20:42:39.505Z,0
2022-10-31T20:43:39.295Z,0
2022-10-31T20:44:39.493Z,0
2022-10-31T20:45:39.237Z,0
2022-10-31T20:46:39.305Z,0
2022-10-31T20:47:39.300Z,0
2022-10-31T20:48:39.546Z,0
2022-10-31T20:49:39.559Z,0
2022-10-31T20:50:39.337Z,0
2022-10-31T20:51:39.349Z,0
2022-10-31T20:52:39.351Z,0
2022-10-31T20:53:39.352Z,0
2022-10-31T20:54:40.228Z,0
2022-10-31T20:55:39.388Z,0
2022-10-31T20:56:39.976Z,0
2022-10-31T20:57:40.261Z,0
2022-10-31T20:58:39.443Z,0
2022-10-31T20:59:40.950Z,0
2022-10-31T21:00:39.787Z,0
2022-10-31T21:01:40.412Z,0
2022-10-31T21:02:39.825Z,0
2022-10-31T21:03:39.566Z,0
2022-10-31T21:04:40.518Z,0
2022-10-31T21:05:43.079Z,0
2022-10-31T21:06:39.527Z,0
2022-10-31T21:07:40.573Z,0
2022-10-31T21:08:39.908Z,0
2022-10-31T21:09:40.378Z,0
2022-10-31T21:10:39.652Z,0
2022-10-31T21:11:39.589Z,0
2022-10-31T21:12:40.614Z,0
2022-10-31T21:13:45.561Z,0
2022-10-31T21:14:39.704Z,0
2022-10-31T21:15:39.738Z,0
2022-10-31T21:16:39.751Z,0
2022-10-31T21:17:39.815Z,0
2022-10-31T21:18:40.060Z,0
2022-10-31T21:19:40.668Z,0
2022-10-31T21:20:40.720Z,0
2022-10-31T21:21:39.895Z,0
2022-10-31T21:22:40.647Z,0
2022-10-31T21:23:39.922Z,0
2022-10-31T21:24:39.916Z,0
2022-10-31T21:25:40.461Z,0
2022-10-31T21:26:41.163Z,0
2022-10-31T21:27:40.479Z,0
2022-10-31T21:28:40.936Z,0
2022-10-31T21:29:40.210Z,0
2022-10-31T21:30:40.796Z,0
2022-10-31T21:31:39.942Z,0
2022-10-31T21:32:40.057Z,0
2022-10-31T21:33:40.550Z,0
2022-10-31T21:34:40.301Z,0
2022-10-31T21:35:40.097Z,0
2022-10-31T21:36:40.173Z,0
2022-10-31T21:37:40.138Z,0
2022-10-31T21:38:40.133Z,0
2022-10-31T21:39:40.038Z,0
2022-10-31T21:40:40.841Z,0
2022-10-31T21:41:41.396Z,0
2022-10-31T21:42:40.053Z,0
2022-10-31T21:43:40.093Z,0
2022-10-31T21:44:40.664Z,0
2022-10-31T21:45:40.329Z,0
2022-10-31T21:46:40.631Z,0
2022-10-31T21:47:40.081Z,0
2022-10-31T21:48:40.090Z,0
2022-10-31T21:49:40.165Z,0
2022-10-31T21:50:40.160Z,0
2022-10-31T21:51:40.314Z,0
2022-10-31T21:52:40.479Z,0
2022-10-31T21:53:40.092Z,0
2022-10-31T21:54:40.090Z,0
2022-10-31T21:55:40.108Z,0
2022-10-31T21:56:40.417Z,0
2022-10-31T21:57:40.426Z,0
2022-10-31T21:58:44.287Z,0
2022-10-31T21:59:40.469Z,0
2022-10-31T22:00:40.811Z,0
2022-10-31T22:01:41.350Z,0
2022-10-31T22:02:40.422Z,0
2022-10-31T22:03:40.212Z,0
2022-10-31T22:04:40.331Z,0
2022-10-31T22:05:40.360Z,0
2022-10-31T22:06:40.618Z,0
2022-10-31T22:07:40.651Z,0
2022-10-31T22:08:40.707Z,0
2022-10-31T22:09:40.719Z,0
2022-10-31T22:10:40.983Z,0
2022-10-31T22:11:40.888Z,0
2022-10-31T22:12:41.183Z,0
2022-10-31T22:13:41.521Z,0
2022-10-31T22:15:40.680Z,0
2022-10-31T22:16:41.419Z,0
2022-10-31T22:17:41.502Z,0
2022-10-31T22:18:40.620Z,0
2022-10-31T22:19:42.577Z,0
2022-10-31T22:20:40.423Z,0
2022-10-31T22:21:41.078Z,0
2022-10-31T22:22:40.422Z,0
2022-10-31T22:23:40.697Z,0
2022-10-31T22:25:12.517Z,0
2022-10-31T22:25:41.033Z,0
2022-10-31T22:26:40.700Z,0
2022-10-31T22:27:41.345Z,0
2022-10-31T22:28:40.635Z,0
2022-10-31T22:29:40.536Z,0
2022-10-31T22:30:42.553Z,0
2022-10-31T22:31:41.003Z,0
2022-10-31T22:32:43.231Z,0
2022-10-31T22:33:41.703Z,0
2022-10-31T22:34:40.977Z,0
2022-10-31T22:35:41.278Z,0
2022-10-31T22:36:41.212Z,0
2022-10-31T22:37:40.752Z,0
2022-10-31T22:38:41.509Z,0
2022-10-31T22:39:40.923Z,0
2022-10-31T22:40:41.276Z,0
2022-10-31T22:41:40.994Z,0
2022-10-31T22:42:41.170Z,0
2022-10-31T22:43:40.678Z,0
2022-10-31T22:44:40.742Z,0
2022-10-31T22:45:40.850Z,0
2022-10-31T22:46:41.021Z,0
2022-10-31T22:48:41.417Z,0
2022-10-31T22:49:40.970Z,0
2022-10-31T22:50:40.791Z,0
2022-10-31T22:51:41.518Z,0
2022-10-31T22:52:40.833Z,0
2022-10-31T22:53:41.096Z,0
2022-10-31T22:54:40.842Z,0
2022-10-31T22:55:41.119Z,0
2022-10-31T22:56:40.919Z,0
2022-10-31T22:57:40.853Z,0
2022-10-31T22:58:41.725Z,0
2022-10-31T22:59:41.936Z,0
2022-10-31T23:00:41.849Z,0
2022-10-31T23:01:42.064Z,0
